This is the latest recevied weather packets stored in our database for station/object OH2NJR. If no packets are shown the sender has not sent any weather packets the latest 10 day(s).
| Time | Temp. | Humidity | Pressure | Rain* | Wind** | Luminosity | Snow |
|---|---|---|---|---|---|---|---|
| 1777317198 | 3.33° C | 66% | 1015.9 hPa | 0 mm | - | - | - |
| 1777316148 | 3.89° C | 61% | 1015.9 hPa | 0 mm | - | - | - |
| 1777315004 | 4.44° C | 61% | 1015.6 hPa | 0 mm | - | - | - |
| 1777314024 | 4.44° C | 59% | 1015.3 hPa | 0 mm | - | - | - |
| 1777312929 | 4.44° C | 58% | 1015.2 hPa | 0 mm | - | - | - |
| 1777311730 | 4.44° C | 57% | 1015.1 hPa | 0 mm | - | - | - |
| 1777310531 | 5° C | 54% | 1015 hPa | 0 mm | - | - | - |
| 1777309344 | 4.44° C | - | - | 0 mm | - | - | - |
| 1777309338 | 4.44° C | 59% | 1015.1 hPa | 0 mm | - | - | - |
| 1777308319 | 6.67° C | 43% | 1014.1 hPa | 0 mm | - | - | - |
| 1777307299 | 6.67° C | 39% | 1013.9 hPa | 0 mm | - | - | - |
| 1777306295 | 6.67° C | 42% | 1013.8 hPa | 0 mm | - | - | - |
| 1777305289 | 7.78° C | 37% | 1013.7 hPa | 0 mm | - | - | - |
| 1777304218 | 7.22° C | 36% | 1013.8 hPa | 0 mm | - | - | - |
| 1777303114 | 7.22° C | 39% | 1013.8 hPa | 0 mm | - | - | - |
| 1777302009 | 7.22° C | 36% | 1013.7 hPa | 0 mm | - | - | - |
| 1777300974 | 7.22° C | 35% | 1013.8 hPa | 0 mm | - | - | - |
| 1777299995 | 8.33° C | 31% | 1013.4 hPa | 0 mm | - | - | - |
| 1777298955 | 8.33° C | 27% | 1013.4 hPa | 0 mm | - | - | - |
| 1777298951 | 8.33° C | 27% | 1013.4 hPa | 0 mm | - | - | - |
| 1777297923 | 7.78° C | 32% | 1013.4 hPa | 0 mm | - | - | - |
| 1777296828 | 8.89° C | 29% | 1013.3 hPa | 0 mm | - | - | - |
| 1777296809 | 8.89° C | 29% | 1013.3 hPa | 0 mm | - | - | - |
| 1777295818 | 8.33° C | 30% | 1013.4 hPa | 0 mm | - | - | - |
| 1777294725 | 8.89° C | 31% | 1013.3 hPa | 0 mm | - | - | - |
* Rain latest hour (hover to see other rain measurements)
** Current wind speed in m/s (hover to see current wind gust speed)